sensor_id;sensor_type;location;lat;lon;timestamp;P1;durP1;ratioP1;P2;durP2;ratioP2
65560;SDS011;58166;52.100;6.308;2022-09-09T00:00:49;2.42;;;2.10;;
65560;SDS011;58166;52.100;6.308;2022-09-09T00:05:49;2.88;;;2.40;;
65560;SDS011;58166;52.100;6.308;2022-09-09T00:08:21;2.90;;;2.20;;
65560;SDS011;58166;52.100;6.308;2022-09-09T00:10:49;3.13;;;2.42;;
65560;SDS011;58166;52.100;6.308;2022-09-09T00:13:20;3.20;;;2.90;;
65560;SDS011;58166;52.100;6.308;2022-09-09T00:15:52;5.05;;;2.80;;
65560;SDS011;58166;52.100;6.308;2022-09-09T00:18:24;3.00;;;2.72;;
65560;SDS011;58166;52.100;6.308;2022-09-09T00:20:53;4.45;;;3.28;;
65560;SDS011;58166;52.100;6.308;2022-09-09T00:23:25;5.13;;;3.65;;
65560;SDS011;58166;52.100;6.308;2022-09-09T00:25:58;4.68;;;3.47;;
65560;SDS011;58166;52.100;6.308;2022-09-09T00:28:27;6.03;;;3.70;;
65560;SDS011;58166;52.100;6.308;2022-09-09T00:30:56;4.18;;;3.65;;
65560;SDS011;58166;52.100;6.308;2022-09-09T00:33:27;4.72;;;4.13;;
65560;SDS011;58166;52.100;6.308;2022-09-09T00:35:57;4.57;;;4.18;;
65560;SDS011;58166;52.100;6.308;2022-09-09T00:38:28;5.85;;;4.00;;
65560;SDS011;58166;52.100;6.308;2022-09-09T00:40:58;4.55;;;4.03;;
65560;SDS011;58166;52.100;6.308;2022-09-09T00:43:28;8.00;;;5.05;;
65560;SDS011;58166;52.100;6.308;2022-09-09T00:46:00;5.53;;;4.20;;
65560;SDS011;58166;52.100;6.308;2022-09-09T00:48:34;7.35;;;5.03;;
65560;SDS011;58166;52.100;6.308;2022-09-09T00:51:05;8.77;;;4.88;;
65560;SDS011;58166;52.100;6.308;2022-09-09T00:53:39;6.88;;;5.30;;
65560;SDS011;58166;52.100;6.308;2022-09-09T00:56:12;7.35;;;5.18;;
65560;SDS011;58166;52.100;6.308;2022-09-09T00:58:42;6.00;;;4.88;;
65560;SDS011;58166;52.100;6.308;2022-09-09T01:01:10;6.57;;;5.07;;
65560;SDS011;58166;52.100;6.308;2022-09-09T01:03:40;6.43;;;5.03;;
65560;SDS011;58166;52.100;6.308;2022-09-09T01:06:12;5.35;;;4.68;;
65560;SDS011;58166;52.100;6.308;2022-09-09T01:08:48;5.72;;;4.35;;
65560;SDS011;58166;52.100;6.308;2022-09-09T01:11:20;6.40;;;4.85;;
65560;SDS011;58166;52.100;6.308;2022-09-09T01:13:49;5.30;;;4.80;;
65560;SDS011;58166;52.100;6.308;2022-09-09T01:16:21;5.90;;;5.30;;
65560;SDS011;58166;52.100;6.308;2022-09-09T01:18:49;6.13;;;4.93;;
65560;SDS011;58166;52.100;6.308;2022-09-09T01:21:20;8.00;;;4.50;;
65560;SDS011;58166;52.100;6.308;2022-09-09T01:26:35;5.03;;;4.53;;
65560;SDS011;58166;52.100;6.308;2022-09-09T01:29:06;4.85;;;4.30;;
65560;SDS011;58166;52.100;6.308;2022-09-09T01:31:35;5.65;;;4.60;;
65560;SDS011;58166;52.100;6.308;2022-09-09T01:34:07;6.70;;;4.57;;
65560;SDS011;58166;52.100;6.308;2022-09-09T01:36:37;6.15;;;4.63;;
65560;SDS011;58166;52.100;6.308;2022-09-09T01:39:06;6.25;;;4.80;;
65560;SDS011;58166;52.100;6.308;2022-09-09T01:41:33;5.82;;;4.95;;
65560;SDS011;58166;52.100;6.308;2022-09-09T01:44:02;5.22;;;4.72;;
65560;SDS011;58166;52.100;6.308;2022-09-09T01:46:30;4.97;;;4.15;;
65560;SDS011;58166;52.100;6.308;2022-09-09T01:48:57;5.00;;;4.13;;
65560;SDS011;58166;52.100;6.308;2022-09-09T01:51:26;4.63;;;4.22;;
65560;SDS011;58166;52.100;6.308;2022-09-09T01:53:53;5.32;;;3.88;;
65560;SDS011;58166;52.100;6.308;2022-09-09T01:56:25;4.82;;;3.80;;
65560;SDS011;58166;52.100;6.308;2022-09-09T01:59:03;5.03;;;4.20;;
65560;SDS011;58166;52.100;6.308;2022-09-09T02:01:35;4.97;;;3.70;;
65560;SDS011;58166;52.100;6.308;2022-09-09T02:04:11;6.43;;;3.90;;
65560;SDS011;58166;52.100;6.308;2022-09-09T02:06:43;4.57;;;3.80;;
65560;SDS011;58166;52.100;6.308;2022-09-09T02:09:13;4.13;;;3.70;;
65560;SDS011;58166;52.100;6.308;2022-09-09T02:11:41;3.72;;;3.20;;
65560;SDS011;58166;52.100;6.308;2022-09-09T02:14:12;3.55;;;3.25;;
65560;SDS011;58166;52.100;6.308;2022-09-09T02:16:42;3.13;;;2.80;;
65560;SDS011;58166;52.100;6.308;2022-09-09T02:19:11;3.13;;;2.50;;
65560;SDS011;58166;52.100;6.308;2022-09-09T02:21:41;4.78;;;2.97;;
65560;SDS011;58166;52.100;6.308;2022-09-09T02:24:09;3.10;;;2.80;;
65560;SDS011;58166;52.100;6.308;2022-09-09T02:26:39;3.00;;;2.70;;
65560;SDS011;58166;52.100;6.308;2022-09-09T02:29:08;3.80;;;2.42;;
65560;SDS011;58166;52.100;6.308;2022-09-09T02:31:38;4.13;;;2.50;;
65560;SDS011;58166;52.100;6.308;2022-09-09T02:34:06;5.45;;;2.35;;
65560;SDS011;58166;52.100;6.308;2022-09-09T02:36:37;3.53;;;3.15;;
65560;SDS011;58166;52.100;6.308;2022-09-09T02:39:07;4.00;;;2.75;;
65560;SDS011;58166;52.100;6.308;2022-09-09T02:41:35;5.78;;;3.40;;
65560;SDS011;58166;52.100;6.308;2022-09-09T02:44:05;4.00;;;3.55;;
65560;SDS011;58166;52.100;6.308;2022-09-09T02:46:39;4.68;;;4.10;;
65560;SDS011;58166;52.100;6.308;2022-09-09T02:49:11;6.05;;;4.43;;
65560;SDS011;58166;52.100;6.308;2022-09-09T02:51:45;8.18;;;6.13;;
65560;SDS011;58166;52.100;6.308;2022-09-09T02:54:20;6.60;;;5.45;;
65560;SDS011;58166;52.100;6.308;2022-09-09T02:56:49;9.05;;;6.10;;
65560;SDS011;58166;52.100;6.308;2022-09-09T02:59:20;7.78;;;5.88;;
65560;SDS011;58166;52.100;6.308;2022-09-09T03:01:49;7.43;;;5.30;;
65560;SDS011;58166;52.100;6.308;2022-09-09T03:04:16;7.15;;;5.15;;
65560;SDS011;58166;52.100;6.308;2022-09-09T03:06:44;6.38;;;4.82;;
65560;SDS011;58166;52.100;6.308;2022-09-09T03:09:11;6.22;;;4.93;;
65560;SDS011;58166;52.100;6.308;2022-09-09T03:11:39;6.43;;;4.88;;
65560;SDS011;58166;52.100;6.308;2022-09-09T03:14:06;5.32;;;4.65;;
65560;SDS011;58166;52.100;6.308;2022-09-09T03:16:34;6.25;;;4.60;;
65560;SDS011;58166;52.100;6.308;2022-09-09T03:19:03;5.13;;;4.35;;
65560;SDS011;58166;52.100;6.308;2022-09-09T03:21:30;6.47;;;5.22;;
65560;SDS011;58166;52.100;6.308;2022-09-09T03:23:58;6.25;;;4.30;;
65560;SDS011;58166;52.100;6.308;2022-09-09T03:26:25;6.53;;;5.22;;
65560;SDS011;58166;52.100;6.308;2022-09-09T03:28:53;6.93;;;5.38;;
65560;SDS011;58166;52.100;6.308;2022-09-09T03:31:20;9.05;;;4.97;;
65560;SDS011;58166;52.100;6.308;2022-09-09T03:33:48;5.93;;;4.72;;
65560;SDS011;58166;52.100;6.308;2022-09-09T03:36:16;7.20;;;5.53;;
65560;SDS011;58166;52.100;6.308;2022-09-09T03:38:44;5.82;;;5.32;;
65560;SDS011;58166;52.100;6.308;2022-09-09T03:41:11;6.47;;;5.50;;
65560;SDS011;58166;52.100;6.308;2022-09-09T03:43:39;8.18;;;6.00;;
65560;SDS011;58166;52.100;6.308;2022-09-09T03:46:07;5.95;;;5.30;;
65560;SDS011;58166;52.100;6.308;2022-09-09T03:48:35;6.47;;;5.65;;
65560;SDS011;58166;52.100;6.308;2022-09-09T03:51:03;8.52;;;5.60;;
65560;SDS011;58166;52.100;6.308;2022-09-09T03:53:31;6.63;;;6.03;;
65560;SDS011;58166;52.100;6.308;2022-09-09T03:55:59;6.95;;;5.47;;
65560;SDS011;58166;52.100;6.308;2022-09-09T03:58:27;6.18;;;5.40;;
65560;SDS011;58166;52.100;6.308;2022-09-09T04:00:55;6.40;;;5.53;;
65560;SDS011;58166;52.100;6.308;2022-09-09T04:03:23;7.22;;;6.13;;
65560;SDS011;58166;52.100;6.308;2022-09-09T04:05:54;6.57;;;5.95;;
65560;SDS011;58166;52.100;6.308;2022-09-09T04:08:21;9.25;;;6.60;;
65560;SDS011;58166;52.100;6.308;2022-09-09T04:10:53;6.50;;;5.80;;
65560;SDS011;58166;52.100;6.308;2022-09-09T04:13:24;10.15;;;6.68;;
65560;SDS011;58166;52.100;6.308;2022-09-09T04:15:52;7.72;;;5.78;;
65560;SDS011;58166;52.100;6.308;2022-09-09T04:18:20;9.23;;;6.10;;
65560;SDS011;58166;52.100;6.308;2022-09-09T04:20:48;8.88;;;6.38;;
65560;SDS011;58166;52.100;6.308;2022-09-09T04:23:16;10.07;;;6.32;;
65560;SDS011;58166;52.100;6.308;2022-09-09T04:25:44;7.43;;;6.60;;
65560;SDS011;58166;52.100;6.308;2022-09-09T04:28:14;8.05;;;6.25;;
65560;SDS011;58166;52.100;6.308;2022-09-09T04:30:42;7.95;;;6.55;;
65560;SDS011;58166;52.100;6.308;2022-09-09T04:33:09;6.20;;;5.60;;
65560;SDS011;58166;52.100;6.308;2022-09-09T04:35:37;9.40;;;6.88;;
65560;SDS011;58166;52.100;6.308;2022-09-09T04:38:05;9.20;;;6.68;;
65560;SDS011;58166;52.100;6.308;2022-09-09T04:40:34;7.03;;;6.32;;
65560;SDS011;58166;52.100;6.308;2022-09-09T04:43:02;8.35;;;6.00;;
65560;SDS011;58166;52.100;6.308;2022-09-09T04:45:32;7.07;;;6.10;;
65560;SDS011;58166;52.100;6.308;2022-09-09T04:47:59;7.18;;;6.35;;
65560;SDS011;58166;52.100;6.308;2022-09-09T04:50:28;9.13;;;6.38;;
65560;SDS011;58166;52.100;6.308;2022-09-09T04:52:55;10.10;;;7.10;;
65560;SDS011;58166;52.100;6.308;2022-09-09T04:55:23;9.43;;;6.88;;
65560;SDS011;58166;52.100;6.308;2022-09-09T04:57:50;9.80;;;6.95;;
65560;SDS011;58166;52.100;6.308;2022-09-09T05:00:18;9.48;;;6.78;;
65560;SDS011;58166;52.100;6.308;2022-09-09T05:02:47;8.98;;;6.97;;
65560;SDS011;58166;52.100;6.308;2022-09-09T05:05:14;7.30;;;6.05;;
65560;SDS011;58166;52.100;6.308;2022-09-09T05:07:42;12.43;;;6.47;;
65560;SDS011;58166;52.100;6.308;2022-09-09T05:10:10;7.47;;;6.43;;
65560;SDS011;58166;52.100;6.308;2022-09-09T05:12:37;7.50;;;6.43;;
65560;SDS011;58166;52.100;6.308;2022-09-09T05:15:05;7.55;;;5.95;;
65560;SDS011;58166;52.100;6.308;2022-09-09T05:17:33;8.98;;;6.50;;
65560;SDS011;58166;52.100;6.308;2022-09-09T05:20:02;7.50;;;6.05;;
65560;SDS011;58166;52.100;6.308;2022-09-09T05:22:35;7.20;;;6.25;;
65560;SDS011;58166;52.100;6.308;2022-09-09T05:25:03;9.90;;;6.00;;
65560;SDS011;58166;52.100;6.308;2022-09-09T05:27:30;7.03;;;6.20;;
65560;SDS011;58166;52.100;6.308;2022-09-09T05:29:58;10.00;;;6.40;;
65560;SDS011;58166;52.100;6.308;2022-09-09T05:32:25;10.90;;;6.10;;
65560;SDS011;58166;52.100;6.308;2022-09-09T05:34:53;9.57;;;5.88;;
65560;SDS011;58166;52.100;6.308;2022-09-09T05:37:23;8.65;;;6.40;;
65560;SDS011;58166;52.100;6.308;2022-09-09T05:39:50;11.15;;;5.78;;
65560;SDS011;58166;52.100;6.308;2022-09-09T05:42:18;8.73;;;5.65;;
65560;SDS011;58166;52.100;6.308;2022-09-09T05:44:45;8.70;;;5.80;;
65560;SDS011;58166;52.100;6.308;2022-09-09T05:47:13;9.15;;;5.43;;
65560;SDS011;58166;52.100;6.308;2022-09-09T05:49:41;7.07;;;5.50;;
65560;SDS011;58166;52.100;6.308;2022-09-09T05:52:08;11.02;;;6.07;;
65560;SDS011;58166;52.100;6.308;2022-09-09T05:54:37;9.95;;;5.32;;
65560;SDS011;58166;52.100;6.308;2022-09-09T05:57:06;12.55;;;5.57;;
65560;SDS011;58166;52.100;6.308;2022-09-09T05:59:33;7.82;;;5.57;;
65560;SDS011;58166;52.100;6.308;2022-09-09T06:02:01;9.10;;;5.45;;
65560;SDS011;58166;52.100;6.308;2022-09-09T06:04:28;8.88;;;5.75;;
65560;SDS011;58166;52.100;6.308;2022-09-09T06:06:56;6.93;;;5.68;;
65560;SDS011;58166;52.100;6.308;2022-09-09T06:09:25;12.55;;;6.45;;
65560;SDS011;58166;52.100;6.308;2022-09-09T06:11:54;9.50;;;5.93;;
65560;SDS011;58166;52.100;6.308;2022-09-09T06:14:21;9.82;;;5.55;;
65560;SDS011;58166;52.100;6.308;2022-09-09T06:16:49;7.07;;;5.97;;
65560;SDS011;58166;52.100;6.308;2022-09-09T06:19:16;9.13;;;6.05;;
65560;SDS011;58166;52.100;6.308;2022-09-09T06:21:44;9.35;;;6.45;;
65560;SDS011;58166;52.100;6.308;2022-09-09T06:24:11;11.05;;;5.85;;
65560;SDS011;58166;52.100;6.308;2022-09-09T06:26:43;7.22;;;5.63;;
65560;SDS011;58166;52.100;6.308;2022-09-09T06:29:13;8.88;;;5.53;;
65560;SDS011;58166;52.100;6.308;2022-09-09T06:31:40;9.43;;;5.47;;
65560;SDS011;58166;52.100;6.308;2022-09-09T06:34:08;8.65;;;5.63;;
65560;SDS011;58166;52.100;6.308;2022-09-09T06:36:36;7.22;;;5.38;;
65560;SDS011;58166;52.100;6.308;2022-09-09T06:39:04;9.20;;;5.50;;
65560;SDS011;58166;52.100;6.308;2022-09-09T06:41:38;10.48;;;5.80;;
65560;SDS011;58166;52.100;6.308;2022-09-09T06:44:07;7.78;;;5.75;;
65560;SDS011;58166;52.100;6.308;2022-09-09T06:46:35;9.13;;;5.65;;
65560;SDS011;58166;52.100;6.308;2022-09-09T06:49:03;9.73;;;5.53;;
65560;SDS011;58166;52.100;6.308;2022-09-09T06:51:31;8.45;;;5.63;;
65560;SDS011;58166;52.100;6.308;2022-09-09T06:53:59;8.93;;;5.35;;
65560;SDS011;58166;52.100;6.308;2022-09-09T06:56:29;9.88;;;6.18;;
65560;SDS011;58166;52.100;6.308;2022-09-09T06:58:57;8.07;;;4.38;;
65560;SDS011;58166;52.100;6.308;2022-09-09T07:01:25;12.75;;;4.50;;
65560;SDS011;58166;52.100;6.308;2022-09-09T07:03:56;9.80;;;4.80;;
65560;SDS011;58166;52.100;6.308;2022-09-09T07:06:25;12.55;;;5.47;;
65560;SDS011;58166;52.100;6.308;2022-09-09T07:08:54;8.52;;;4.60;;
65560;SDS011;58166;52.100;6.308;2022-09-09T07:11:22;10.68;;;4.60;;
65560;SDS011;58166;52.100;6.308;2022-09-09T07:13:50;10.45;;;4.20;;
65560;SDS011;58166;52.100;6.308;2022-09-09T07:16:18;6.50;;;4.20;;
65560;SDS011;58166;52.100;6.308;2022-09-09T07:18:46;7.60;;;4.18;;
65560;SDS011;58166;52.100;6.308;2022-09-09T07:21:15;8.50;;;4.15;;
65560;SDS011;58166;52.100;6.308;2022-09-09T07:23:43;8.88;;;4.18;;
65560;SDS011;58166;52.100;6.308;2022-09-09T07:26:10;10.52;;;3.65;;
65560;SDS011;58166;52.100;6.308;2022-09-09T07:28:38;12.40;;;4.65;;
65560;SDS011;58166;52.100;6.308;2022-09-09T07:31:08;7.65;;;4.07;;
65560;SDS011;58166;52.100;6.308;2022-09-09T07:33:42;9.93;;;4.35;;
65560;SDS011;58166;52.100;6.308;2022-09-09T07:36:12;10.43;;;4.15;;
65560;SDS011;58166;52.100;6.308;2022-09-09T07:38:42;7.30;;;3.65;;
65560;SDS011;58166;52.100;6.308;2022-09-09T07:41:12;11.23;;;3.63;;
65560;SDS011;58166;52.100;6.308;2022-09-09T07:43:40;5.95;;;3.33;;
65560;SDS011;58166;52.100;6.308;2022-09-09T07:46:07;8.93;;;3.55;;
65560;SDS011;58166;52.100;6.308;2022-09-09T07:48:35;6.60;;;3.47;;
65560;SDS011;58166;52.100;6.308;2022-09-09T07:51:04;9.95;;;3.25;;
65560;SDS011;58166;52.100;6.308;2022-09-09T07:53:32;9.55;;;3.47;;
65560;SDS011;58166;52.100;6.308;2022-09-09T07:56:05;10.13;;;3.42;;
65560;SDS011;58166;52.100;6.308;2022-09-09T07:58:33;11.52;;;3.55;;
65560;SDS011;58166;52.100;6.308;2022-09-09T08:01:07;6.50;;;2.88;;
65560;SDS011;58166;52.100;6.308;2022-09-09T08:03:36;5.90;;;2.80;;
65560;SDS011;58166;52.100;6.308;2022-09-09T08:06:04;8.50;;;2.72;;
65560;SDS011;58166;52.100;6.308;2022-09-09T08:08:33;8.98;;;3.08;;
65560;SDS011;58166;52.100;6.308;2022-09-09T08:11:01;4.93;;;2.58;;
65560;SDS011;58166;52.100;6.308;2022-09-09T08:13:30;8.40;;;3.28;;
65560;SDS011;58166;52.100;6.308;2022-09-09T08:16:05;9.50;;;3.33;;
65560;SDS011;58166;52.100;6.308;2022-09-09T08:18:33;9.27;;;2.95;;
65560;SDS011;58166;52.100;6.308;2022-09-09T08:21:07;10.77;;;3.15;;
65560;SDS011;58166;52.100;6.308;2022-09-09T08:23:36;8.38;;;2.60;;
65560;SDS011;58166;52.100;6.308;2022-09-09T08:26:04;6.13;;;2.50;;
65560;SDS011;58166;52.100;6.308;2022-09-09T08:28:33;7.28;;;2.85;;
65560;SDS011;58166;52.100;6.308;2022-09-09T08:31:07;5.88;;;2.72;;
65560;SDS011;58166;52.100;6.308;2022-09-09T08:33:35;13.73;;;4.72;;
65560;SDS011;58166;52.100;6.308;2022-09-09T08:36:05;8.85;;;2.72;;
65560;SDS011;58166;52.100;6.308;2022-09-09T08:38:32;7.80;;;2.45;;
65560;SDS011;58166;52.100;6.308;2022-09-09T08:41:04;9.10;;;2.28;;
65560;SDS011;58166;52.100;6.308;2022-09-09T08:43:35;9.52;;;2.90;;
65560;SDS011;58166;52.100;6.308;2022-09-09T08:46:04;7.72;;;1.95;;
65560;SDS011;58166;52.100;6.308;2022-09-09T08:48:40;6.68;;;2.20;;
65560;SDS011;58166;52.100;6.308;2022-09-09T08:51:10;7.43;;;2.45;;
65560;SDS011;58166;52.100;6.308;2022-09-09T08:53:39;6.78;;;2.20;;
65560;SDS011;58166;52.100;6.308;2022-09-09T08:56:09;4.35;;;1.77;;
65560;SDS011;58166;52.100;6.308;2022-09-09T08:58:41;7.15;;;1.40;;
65560;SDS011;58166;52.100;6.308;2022-09-09T09:01:16;7.18;;;1.98;;
65560;SDS011;58166;52.100;6.308;2022-09-09T09:03:48;4.95;;;1.60;;
65560;SDS011;58166;52.100;6.308;2022-09-09T09:06:23;5.72;;;1.52;;
65560;SDS011;58166;52.100;6.308;2022-09-09T09:08:55;7.75;;;1.80;;
65560;SDS011;58166;52.100;6.308;2022-09-09T09:11:26;5.25;;;1.83;;
65560;SDS011;58166;52.100;6.308;2022-09-09T09:13:56;6.65;;;2.03;;
65560;SDS011;58166;52.100;6.308;2022-09-09T09:16:27;6.30;;;1.83;;
65560;SDS011;58166;52.100;6.308;2022-09-09T09:18:58;8.90;;;1.70;;
65560;SDS011;58166;52.100;6.308;2022-09-09T09:21:29;7.25;;;2.08;;
65560;SDS011;58166;52.100;6.308;2022-09-09T09:24:00;3.72;;;1.45;;
65560;SDS011;58166;52.100;6.308;2022-09-09T09:26:29;4.25;;;1.50;;
65560;SDS011;58166;52.100;6.308;2022-09-09T09:28:59;8.13;;;1.45;;
65560;SDS011;58166;52.100;6.308;2022-09-09T09:31:29;7.05;;;2.05;;
65560;SDS011;58166;52.100;6.308;2022-09-09T09:33:56;5.43;;;2.17;;
65560;SDS011;58166;52.100;6.308;2022-09-09T09:36:25;4.95;;;1.55;;
65560;SDS011;58166;52.100;6.308;2022-09-09T09:39:00;4.63;;;1.88;;
65560;SDS011;58166;52.100;6.308;2022-09-09T09:41:48;5.07;;;1.45;;
65560;SDS011;58166;52.100;6.308;2022-09-09T09:44:24;10.32;;;1.83;;
65560;SDS011;58166;52.100;6.308;2022-09-09T09:46:52;6.15;;;1.70;;
65560;SDS011;58166;52.100;6.308;2022-09-09T09:49:19;5.10;;;1.33;;
65560;SDS011;58166;52.100;6.308;2022-09-09T09:51:47;8.55;;;2.28;;
65560;SDS011;58166;52.100;6.308;2022-09-09T09:54:16;6.45;;;1.80;;
65560;SDS011;58166;52.100;6.308;2022-09-09T09:56:44;3.92;;;1.58;;
65560;SDS011;58166;52.100;6.308;2022-09-09T09:59:20;3.97;;;1.70;;
65560;SDS011;58166;52.100;6.308;2022-09-09T10:02:16;3.78;;;1.55;;
65560;SDS011;58166;52.100;6.308;2022-09-09T10:04:43;7.40;;;1.90;;
65560;SDS011;58166;52.100;6.308;2022-09-09T10:07:12;3.22;;;1.52;;
65560;SDS011;58166;52.100;6.308;2022-09-09T10:09:40;8.65;;;1.80;;
65560;SDS011;58166;52.100;6.308;2022-09-09T10:12:11;5.38;;;1.40;;
65560;SDS011;58166;52.100;6.308;2022-09-09T10:14:41;3.25;;;1.40;;
65560;SDS011;58166;52.100;6.308;2022-09-09T10:17:16;5.55;;;1.13;;
65560;SDS011;58166;52.100;6.308;2022-09-09T10:19:51;6.00;;;1.38;;
65560;SDS011;58166;52.100;6.308;2022-09-09T10:22:26;4.07;;;1.38;;
65560;SDS011;58166;52.100;6.308;2022-09-09T10:24:58;5.18;;;1.17;;
65560;SDS011;58166;52.100;6.308;2022-09-09T10:27:30;7.57;;;1.60;;
65560;SDS011;58166;52.100;6.308;2022-09-09T10:30:01;4.30;;;1.40;;
65560;SDS011;58166;52.100;6.308;2022-09-09T10:32:40;7.60;;;1.30;;
65560;SDS011;58166;52.100;6.308;2022-09-09T10:38:08;4.63;;;1.10;;
65560;SDS011;58166;52.100;6.308;2022-09-09T10:40:38;4.60;;;1.15;;
65560;SDS011;58166;52.100;6.308;2022-09-09T10:43:09;9.48;;;1.77;;
65560;SDS011;58166;52.100;6.308;2022-09-09T10:45:41;11.50;;;1.85;;
65560;SDS011;58166;52.100;6.308;2022-09-09T10:48:16;2.65;;;1.30;;
65560;SDS011;58166;52.100;6.308;2022-09-09T10:50:50;7.47;;;2.15;;
65560;SDS011;58166;52.100;6.308;2022-09-09T10:53:34;4.47;;;1.13;;
65560;SDS011;58166;52.100;6.308;2022-09-09T10:56:04;4.47;;;1.30;;
65560;SDS011;58166;52.100;6.308;2022-09-09T10:58:35;6.20;;;1.40;;
65560;SDS011;58166;52.100;6.308;2022-09-09T11:01:06;4.70;;;1.27;;
65560;SDS011;58166;52.100;6.308;2022-09-09T11:03:38;4.25;;;1.33;;
65560;SDS011;58166;52.100;6.308;2022-09-09T11:06:09;8.50;;;1.45;;
65560;SDS011;58166;52.100;6.308;2022-09-09T11:08:39;5.45;;;1.70;;
65560;SDS011;58166;52.100;6.308;2022-09-09T11:11:09;5.80;;;1.42;;
65560;SDS011;58166;52.100;6.308;2022-09-09T11:13:39;4.75;;;1.33;;
65560;SDS011;58166;52.100;6.308;2022-09-09T11:16:15;3.53;;;1.45;;
65560;SDS011;58166;52.100;6.308;2022-09-09T11:18:44;5.80;;;1.02;;
65560;SDS011;58166;52.100;6.308;2022-09-09T11:21:15;4.70;;;1.02;;
65560;SDS011;58166;52.100;6.308;2022-09-09T11:23:45;3.10;;;1.30;;
65560;SDS011;58166;52.100;6.308;2022-09-09T11:26:15;5.90;;;1.20;;
65560;SDS011;58166;52.100;6.308;2022-09-09T11:28:47;4.22;;;1.67;;
65560;SDS011;58166;52.100;6.308;2022-09-09T11:31:21;4.00;;;1.20;;
65560;SDS011;58166;52.100;6.308;2022-09-09T11:34:01;4.57;;;1.10;;
65560;SDS011;58166;52.100;6.308;2022-09-09T11:36:39;5.13;;;1.30;;
65560;SDS011;58166;52.100;6.308;2022-09-09T11:39:14;3.03;;;1.10;;
65560;SDS011;58166;52.100;6.308;2022-09-09T11:41:46;5.93;;;1.52;;
65560;SDS011;58166;52.100;6.308;2022-09-09T11:44:17;4.82;;;1.30;;
65560;SDS011;58166;52.100;6.308;2022-09-09T11:46:45;7.60;;;1.27;;
65560;SDS011;58166;52.100;6.308;2022-09-09T11:49:25;7.72;;;1.30;;
65560;SDS011;58166;52.100;6.308;2022-09-09T11:51:53;4.80;;;1.42;;
65560;SDS011;58166;52.100;6.308;2022-09-09T11:54:26;6.68;;;1.30;;
65560;SDS011;58166;52.100;6.308;2022-09-09T11:56:55;3.97;;;0.85;;
65560;SDS011;58166;52.100;6.308;2022-09-09T11:59:24;4.35;;;1.08;;
65560;SDS011;58166;52.100;6.308;2022-09-09T12:01:54;4.15;;;1.30;;
65560;SDS011;58166;52.100;6.308;2022-09-09T12:04:29;2.72;;;1.08;;
65560;SDS011;58166;52.100;6.308;2022-09-09T12:06:58;4.50;;;1.30;;
65560;SDS011;58166;52.100;6.308;2022-09-09T12:09:28;5.10;;;1.13;;
65560;SDS011;58166;52.100;6.308;2022-09-09T12:12:06;4.63;;;1.42;;
65560;SDS011;58166;52.100;6.308;2022-09-09T12:14:35;4.85;;;1.25;;
65560;SDS011;58166;52.100;6.308;2022-09-09T12:17:09;4.22;;;1.50;;
65560;SDS011;58166;52.100;6.308;2022-09-09T12:19:38;3.58;;;1.38;;
65560;SDS011;58166;52.100;6.308;2022-09-09T12:22:07;3.60;;;1.30;;
65560;SDS011;58166;52.100;6.308;2022-09-09T12:24:37;4.57;;;1.40;;
65560;SDS011;58166;52.100;6.308;2022-09-09T12:27:07;4.97;;;1.50;;
65560;SDS011;58166;52.100;6.308;2022-09-09T12:29:38;4.70;;;1.30;;
65560;SDS011;58166;52.100;6.308;2022-09-09T12:32:09;4.63;;;1.40;;
65560;SDS011;58166;52.100;6.308;2022-09-09T12:34:40;2.55;;;1.10;;
65560;SDS011;58166;52.100;6.308;2022-09-09T12:37:14;6.30;;;1.40;;
65560;SDS011;58166;52.100;6.308;2022-09-09T12:39:45;2.25;;;1.00;;
65560;SDS011;58166;52.100;6.308;2022-09-09T12:42:18;5.65;;;1.25;;
65560;SDS011;58166;52.100;6.308;2022-09-09T12:47:13;3.08;;;1.15;;
65560;SDS011;58166;52.100;6.308;2022-09-09T12:49:42;2.35;;;0.90;;
65560;SDS011;58166;52.100;6.308;2022-09-09T12:52:12;4.90;;;1.40;;
65560;SDS011;58166;52.100;6.308;2022-09-09T12:54:43;5.38;;;1.40;;
65560;SDS011;58166;52.100;6.308;2022-09-09T12:57:12;2.40;;;1.10;;
65560;SDS011;58166;52.100;6.308;2022-09-09T12:59:41;4.70;;;1.40;;
65560;SDS011;58166;52.100;6.308;2022-09-09T13:02:14;1.30;;;1.10;;
65560;SDS011;58166;52.100;6.308;2022-09-09T13:04:45;4.07;;;1.20;;
65560;SDS011;58166;52.100;6.308;2022-09-09T13:07:13;4.60;;;1.67;;
65560;SDS011;58166;52.100;6.308;2022-09-09T13:09:42;4.22;;;1.40;;
65560;SDS011;58166;52.100;6.308;2022-09-09T13:12:12;3.30;;;1.23;;
65560;SDS011;58166;52.100;6.308;2022-09-09T13:14:42;4.00;;;1.20;;
65560;SDS011;58166;52.100;6.308;2022-09-09T13:17:17;4.25;;;1.30;;
65560;SDS011;58166;52.100;6.308;2022-09-09T13:19:46;5.78;;;1.20;;
65560;SDS011;58166;52.100;6.308;2022-09-09T13:22:20;2.63;;;1.27;;
65560;SDS011;58166;52.100;6.308;2022-09-09T13:24:48;6.13;;;1.92;;
65560;SDS011;58166;52.100;6.308;2022-09-09T13:27:26;4.15;;;1.48;;
65560;SDS011;58166;52.100;6.308;2022-09-09T13:29:55;4.70;;;1.40;;
65560;SDS011;58166;52.100;6.308;2022-09-09T13:32:23;5.65;;;1.70;;
65560;SDS011;58166;52.100;6.308;2022-09-09T13:34:52;4.13;;;1.50;;
65560;SDS011;58166;52.100;6.308;2022-09-09T13:37:22;3.72;;;1.30;;
65560;SDS011;58166;52.100;6.308;2022-09-09T13:39:52;2.10;;;1.40;;
65560;SDS011;58166;52.100;6.308;2022-09-09T13:42:24;5.40;;;1.65;;
65560;SDS011;58166;52.100;6.308;2022-09-09T13:44:52;2.08;;;1.48;;
65560;SDS011;58166;52.100;6.308;2022-09-09T13:47:21;5.30;;;1.88;;
65560;SDS011;58166;52.100;6.308;2022-09-09T13:49:49;3.67;;;1.65;;
65560;SDS011;58166;52.100;6.308;2022-09-09T13:52:18;2.28;;;1.65;;
65560;SDS011;58166;52.100;6.308;2022-09-09T13:54:46;4.68;;;1.83;;
65560;SDS011;58166;52.100;6.308;2022-09-09T13:57:15;4.45;;;1.60;;
65560;SDS011;58166;52.100;6.308;2022-09-09T13:59:43;6.70;;;1.98;;
65560;SDS011;58166;52.100;6.308;2022-09-09T14:02:31;5.18;;;2.00;;
65560;SDS011;58166;52.100;6.308;2022-09-09T14:04:58;4.05;;;1.83;;
65560;SDS011;58166;52.100;6.308;2022-09-09T14:07:27;4.63;;;1.45;;
65560;SDS011;58166;52.100;6.308;2022-09-09T14:09:55;2.80;;;1.33;;
65560;SDS011;58166;52.100;6.308;2022-09-09T14:12:22;2.55;;;1.33;;
65560;SDS011;58166;52.100;6.308;2022-09-09T14:14:50;3.88;;;1.60;;
65560;SDS011;58166;52.100;6.308;2022-09-09T14:17:18;4.25;;;2.00;;
65560;SDS011;58166;52.100;6.308;2022-09-09T14:19:45;4.97;;;1.52;;
65560;SDS011;58166;52.100;6.308;2022-09-09T14:22:13;3.33;;;1.35;;
65560;SDS011;58166;52.100;6.308;2022-09-09T14:24:42;3.35;;;1.67;;
65560;SDS011;58166;52.100;6.308;2022-09-09T14:27:09;5.10;;;1.63;;
65560;SDS011;58166;52.100;6.308;2022-09-09T14:29:36;4.75;;;1.58;;
65560;SDS011;58166;52.100;6.308;2022-09-09T14:32:04;3.22;;;1.85;;
65560;SDS011;58166;52.100;6.308;2022-09-09T14:34:37;6.68;;;1.83;;
65560;SDS011;58166;52.100;6.308;2022-09-09T14:37:05;4.32;;;1.83;;
65560;SDS011;58166;52.100;6.308;2022-09-09T14:39:32;2.53;;;1.58;;
65560;SDS011;58166;52.100;6.308;2022-09-09T14:42:01;4.25;;;1.33;;
65560;SDS011;58166;52.100;6.308;2022-09-09T14:44:29;2.58;;;1.30;;
65560;SDS011;58166;52.100;6.308;2022-09-09T14:46:56;3.22;;;1.52;;
65560;SDS011;58166;52.100;6.308;2022-09-09T14:49:24;5.05;;;1.92;;
65560;SDS011;58166;52.100;6.308;2022-09-09T14:51:52;3.80;;;1.85;;
65560;SDS011;58166;52.100;6.308;2022-09-09T14:54:19;4.60;;;2.10;;
65560;SDS011;58166;52.100;6.308;2022-09-09T14:56:47;3.35;;;2.08;;
65560;SDS011;58166;52.100;6.308;2022-09-09T14:59:16;5.93;;;2.40;;
65560;SDS011;58166;52.100;6.308;2022-09-09T15:01:43;7.47;;;2.42;;
65560;SDS011;58166;52.100;6.308;2022-09-09T15:04:11;6.53;;;2.80;;
65560;SDS011;58166;52.100;6.308;2022-09-09T15:06:40;4.75;;;2.40;;
65560;SDS011;58166;52.100;6.308;2022-09-09T15:09:09;7.47;;;2.40;;
65560;SDS011;58166;52.100;6.308;2022-09-09T15:11:37;5.53;;;2.60;;